Time;durP1;ratioP1;P1;durP2;ratioP2;P2;SDS_P1;SDS_P2;PMS_P1;PMS_P2;Temp;Humidity;BMP_temperature;BMP_pressure;BME280_temperature;BME280_humidity;BME280_pressure;Samples;Min_cycle;Max_cycle;Signal;HPM_P1;HPM_P2
2021/03/28 00:02:52;;;;;;;26.52;4.78;;;;;;;;;;5222429;27;20050;-86
2021/03/28 00:05:48;;;;;;;31.85;6.37;;;;;;;;;;5217242;27;20507;-84
2021/03/28 00:08:26;;;;;;;27.10;5.97;;;;;;;;;;5227470;27;20068;-85
2021/03/28 00:11:11;;;;;;;35.75;8.68;;;;;;;;;;5217198;27;20178;-85
2021/03/28 00:13:59;;;;;;;33.13;9.18;;;;;;;;;;5222549;27;20106;-86
2021/03/28 00:16:31;;;;;;;34.33;6.72;;;;;;;;;;5219306;27;20062;-86
2021/03/28 00:19:05;;;;;;;25.17;5.00;;;;;;;;;;5214583;27;20057;-85
2021/03/28 00:21:35;;;;;;;19.57;3.93;;;;;;;;;;5220095;27;20254;-86
2021/03/28 00:24:03;;;;;;;25.70;6.47;;;;;;;;;;5225268;27;20061;-85
2021/03/28 00:26:33;;;;;;;29.85;6.45;;;;;;;;;;5224298;27;20032;-85
2021/03/28 00:29:23;;;;;;;34.80;5.43;;;;;;;;;;5223862;27;20038;-85
2021/03/28 00:31:56;;;;;;;25.23;4.50;;;;;;;;;;5222491;27;20498;-85
2021/03/28 00:34:24;;;;;;;24.15;5.00;;;;;;;;;;5224348;27;20075;-85
2021/03/28 00:37:01;;;;;;;33.25;5.37;;;;;;;;;;5215591;27;20044;-84
2021/03/28 00:39:35;;;;;;;21.12;4.53;;;;;;;;;;5227133;27;20057;-85
2021/03/28 00:42:05;;;;;;;18.85;3.83;;;;;;;;;;5220498;27;20121;-84
2021/03/28 00:44:43;;;;;;;32.08;4.87;;;;;;;;;;5226290;27;20409;-84
2021/03/28 00:47:11;;;;;;;19.60;4.12;;;;;;;;;;5222033;27;20670;-85
2021/03/28 00:49:42;;;;;;;20.52;4.30;;;;;;;;;;5217642;27;20054;-84
2021/03/28 00:52:23;;;;;;;23.38;4.87;;;;;;;;;;5228057;27;20041;-85
2021/03/28 00:55:01;;;;;;;22.92;3.95;;;;;;;;;;5225803;27;20037;-85
2021/03/28 00:57:41;;;;;;;26.40;4.95;;;;;;;;;;5219422;27;20322;-85
2021/03/28 01:00:19;;;;;;;25.08;4.53;;;;;;;;;;5215582;27;20357;-85
2021/03/28 01:03:03;;;;;;;38.15;5.55;;;;;;;;;;5224217;27;20054;-85
2021/03/28 01:05:40;;;;;;;26.80;5.37;;;;;;;;;;5221937;27;20076;-85
2021/03/28 01:08:38;;;;;;;27.23;5.47;;;;;;;;;;5227320;27;20042;-84
2021/03/28 01:11:43;;;;;;;32.08;6.40;;;;;;;;;;5137409;27;20030;-85
2021/03/28 01:14:39;;;;;;;31.80;5.30;;;;;;;;;;5172485;27;20088;-86
2021/03/28 01:17:11;;;;;;;;;;;;;;;;;;5221260;27;20600;-86
2021/03/28 01:19:54;;;;;;;24.58;4.62;;;;;;;;;;5222437;27;20007;-84
2021/03/28 01:22:34;;;;;;;22.92;5.70;;;;;;;;;;5223279;27;20053;-84
2021/03/28 01:25:14;;;;;;;31.08;5.87;;;;;;;;;;5225708;27;20090;-84
2021/03/28 01:27:47;;;;;;;27.45;5.65;;;;;;;;;;5213259;27;20034;-85
2021/03/28 01:30:22;;;;;;;27.27;5.50;;;;;;;;;;5216090;27;20325;-85
2021/03/28 01:32:50;;;;;;;;;;;;;;;;;;5225930;27;20041;-84
2021/03/28 01:35:26;;;;;;;25.58;4.30;;;;;;;;;;5222536;27;19980;-85
2021/03/28 01:38:11;;;;;;;27.90;5.10;;;;;;;;;;5212052;27;20609;-85
2021/03/28 01:40:45;;;;;;;27.58;4.72;;;;;;;;;;5229633;27;20068;-84
2021/03/28 01:43:21;;;;;;;28.20;5.07;;;;;;;;;;5222497;27;20049;-85
2021/03/28 01:45:51;;;;;;;28.23;5.55;;;;;;;;;;5222434;27;20062;-85
2021/03/28 01:48:31;;;;;;;22.83;4.43;;;;;;;;;;5222129;27;20022;-86
2021/03/28 01:51:18;;;;;;;27.30;4.97;;;;;;;;;;5222656;27;20053;-85
2021/03/28 01:53:52;;;;;;;30.37;5.30;;;;;;;;;;5224527;27;20030;-85
2021/03/28 01:56:28;;;;;;;20.60;4.32;;;;;;;;;;5221382;27;20144;-87
2021/03/28 01:59:25;;;;;;;25.17;4.55;;;;;;;;;;5216276;27;20023;-87
2021/03/28 02:02:02;;;;;;;27.33;4.53;;;;;;;;;;5224197;27;20030;-85
2021/03/28 02:04:33;;;;;;;19.77;4.20;;;;;;;;;;5220980;27;20046;-85
2021/03/28 02:07:17;;;;;;;17.55;3.90;;;;;;;;;;5231702;27;20019;-85
2021/03/28 02:10:04;;;;;;;15.05;3.42;;;;;;;;;;5217968;27;20077;-86
2021/03/28 02:12:43;;;;;;;16.10;3.80;;;;;;;;;;5229073;27;20037;-85
2021/03/28 02:15:21;;;;;;;27.42;4.37;;;;;;;;;;5229402;27;20026;-85
2021/03/28 02:17:49;;;;;;;21.95;3.83;;;;;;;;;;5231242;27;20503;-84
2021/03/28 02:20:22;;;;;;;19.05;4.03;;;;;;;;;;5229227;27;20023;-86
2021/03/28 02:23:09;;;;;;;18.35;4.57;;;;;;;;;;5220564;27;20212;-85
2021/03/28 02:25:50;;;;;;;20.25;4.43;;;;;;;;;;5225920;27;20368;-85
2021/03/28 02:28:27;;;;;;;23.23;4.28;;;;;;;;;;5227414;27;20064;-85
2021/03/28 02:30:58;;;;;;;25.65;4.20;;;;;;;;;;5224708;27;20535;-86
2021/03/28 02:33:48;;;;;;;19.08;4.43;;;;;;;;;;5220148;27;20384;-86
2021/03/28 02:36:19;;;;;;;25.17;3.87;;;;;;;;;;5225832;27;20030;-85
2021/03/28 02:39:10;;;;;;;27.45;4.65;;;;;;;;;;5223156;27;20121;-87
2021/03/28 02:42:01;;;;;;;24.60;4.65;;;;;;;;;;5223299;27;20080;-86
2021/03/28 02:44:46;;;;;;;22.27;4.07;;;;;;;;;;5199127;27;20046;-85
2021/03/28 02:47:36;;;;;;;19.62;4.12;;;;;;;;;;5222568;27;20035;-86
2021/03/28 02:50:22;;;;;;;17.17;4.35;;;;;;;;;;5227330;27;20161;-85
2021/03/28 02:52:59;;;;;;;14.70;3.47;;;;;;;;;;5230019;27;20027;-85
2021/03/28 02:55:31;;;;;;;22.60;4.07;;;;;;;;;;5226358;27;20019;-85
2021/03/28 02:58:09;;;;;;;18.65;3.55;;;;;;;;;;5223616;27;20022;-85
2021/03/28 03:00:46;;;;;;;19.23;4.12;;;;;;;;;;5231525;27;20017;-85
2021/03/28 03:03:17;;;;;;;16.50;3.50;;;;;;;;;;5228560;27;20038;-86
2021/03/28 03:06:20;;;;;;;15.65;3.33;;;;;;;;;;5233598;27;20432;-85
2021/03/28 03:08:48;;;;;;;10.52;3.28;;;;;;;;;;5173345;27;20503;-84
2021/03/28 03:11:40;;;;;;;18.55;3.78;;;;;;;;;;5242144;27;20034;-94
2021/03/28 03:14:18;;;;;;;15.30;3.20;;;;;;;;;;5222293;27;20037;-94
2021/03/28 03:17:05;;;;;;;11.80;3.15;;;;;;;;;;5242556;27;20018;-92
2021/03/28 03:19:52;;;;;;;23.90;4.37;;;;;;;;;;5201418;27;20339;-94
2021/03/28 03:22:41;;;;;;;23.85;3.62;;;;;;;;;;5201663;27;20022;-94
2021/03/28 03:25:31;;;;;;;18.12;4.12;;;;;;;;;;5200905;27;20026;-95
2021/03/28 03:28:07;;;;;;;21.50;4.00;;;;;;;;;;5201510;27;20046;-93
2021/03/28 03:30:49;;;;;;;16.37;3.35;;;;;;;;;;5200251;27;20069;-94
2021/03/28 03:33:31;;;;;;;16.12;3.92;;;;;;;;;;5200614;27;20027;-95
2021/03/28 03:36:38;;;;;;;15.98;3.62;;;;;;;;;;5200239;27;20031;-94
2021/03/28 03:39:16;;;;;;;19.05;3.53;;;;;;;;;;5132474;27;20435;-96
2021/03/28 03:42:03;;;;;;;18.80;3.60;;;;;;;;;;5192095;27;20022;-94
2021/03/28 03:44:54;;;;;;;12.37;3.50;;;;;;;;;;5202803;27;20014;-96
2021/03/28 03:47:40;;;;;;;12.75;3.20;;;;;;;;;;5202397;27;20013;-94
2021/03/28 03:50:25;;;;;;;13.50;3.10;;;;;;;;;;5201885;27;20067;-95
2021/03/28 03:53:05;;;;;;;19.45;3.25;;;;;;;;;;5201421;27;20418;-94
2021/03/28 03:55:54;;;;;;;18.65;3.65;;;;;;;;;;5203162;27;20751;-95
2021/03/28 03:58:31;;;;;;;23.17;4.00;;;;;;;;;;5215063;27;20110;-93
2021/03/28 04:01:18;;;;;;;18.60;3.53;;;;;;;;;;5200054;27;20022;-95
2021/03/28 04:04:05;;;;;;;21.67;3.80;;;;;;;;;;5202091;27;20018;-94
2021/03/28 04:06:55;;;;;;;13.95;3.37;;;;;;;;;;5204644;27;20040;-93
2021/03/28 04:09:36;;;;;;;18.92;3.47;;;;;;;;;;5201112;27;20015;-95
2021/03/28 04:12:29;;;;;;;15.70;3.53;;;;;;;;;;5201928;27;20037;-95
2021/03/28 04:15:20;;;;;;;12.45;3.00;;;;;;;;;;5201516;27;20057;-94
2021/03/28 04:18:02;;;;;;;21.50;4.12;;;;;;;;;;5201149;27;20089;-94
2021/03/28 04:20:33;;;;;;;26.45;4.20;;;;;;;;;;5202057;27;20022;-94
2021/03/28 04:23:10;;;;;;;25.65;4.72;;;;;;;;;;5202280;27;20054;-96
2021/03/28 04:25:46;;;;;;;23.73;4.18;;;;;;;;;;5202166;27;20087;-92
2021/03/28 04:28:32;;;;;;;29.87;4.80;;;;;;;;;;5200091;27;20108;-94
2021/03/28 04:31:27;;;;;;;29.80;4.80;;;;;;;;;;5202318;27;20034;-93
2021/03/28 04:34:10;;;;;;;27.30;4.60;;;;;;;;;;5199367;27;20127;-95
2021/03/28 04:37:00;;;;;;;22.98;4.35;;;;;;;;;;5198028;27;20367;-92
2021/03/28 04:39:32;;;;;;;20.88;4.10;;;;;;;;;;5199804;27;20461;-93
2021/03/28 04:42:20;;;;;;;22.92;4.68;;;;;;;;;;5198603;27;20073;-92
2021/03/28 04:44:48;;;;;;;24.35;4.28;;;;;;;;;;5217705;27;20514;-93
2021/03/28 04:47:23;;;;;;;30.92;5.78;;;;;;;;;;5213647;27;20049;-91
2021/03/28 04:50:03;;;;;;;21.95;4.90;;;;;;;;;;5198973;27;20022;-91
2021/03/28 04:52:42;;;;;;;31.17;5.12;;;;;;;;;;5199397;27;20031;-94
2021/03/28 04:55:29;;;;;;;32.67;4.62;;;;;;;;;;5202943;27;20021;-94
2021/03/28 04:58:14;;;;;;;29.12;4.68;;;;;;;;;;5216877;27;20346;-93
2021/03/28 05:01:01;;;;;;;28.27;4.30;;;;;;;;;;5190810;27;20455;-91
2021/03/28 05:03:46;;;;;;;30.33;5.53;;;;;;;;;;5218734;27;20384;-91
2021/03/28 05:06:16;;;;;;;24.50;4.68;;;;;;;;;;5201208;27;20031;-92
2021/03/28 05:08:51;;;;;;;31.48;5.65;;;;;;;;;;5215149;27;20026;-92
2021/03/28 05:11:38;;;;;;;26.37;5.22;;;;;;;;;;5216439;27;20540;-92
2021/03/28 05:14:21;;;;;;;27.50;4.78;;;;;;;;;;5199822;27;20029;-93
2021/03/28 05:17:09;;;;;;;32.15;5.37;;;;;;;;;;5199766;27;20487;-92
2021/03/28 05:19:43;;;;;;;33.08;5.68;;;;;;;;;;5199530;27;20348;-92
2021/03/28 05:22:35;;;;;;;;;;;;;;;;;;5203595;27;20069;-93
2021/03/28 05:25:13;;;;;;;45.92;6.37;;;;;;;;;;5206720;27;19946;-92
2021/03/28 05:27:52;;;;;;;37.95;6.20;;;;;;;;;;5191646;27;20026;-94
2021/03/28 05:30:30;;;;;;;31.95;6.55;;;;;;;;;;5219746;27;20018;-93
2021/03/28 05:33:04;;;;;;;43.55;7.35;;;;;;;;;;5201074;27;20355;-93
2021/03/28 05:35:40;;;;;;;29.42;6.35;;;;;;;;;;5200196;27;20031;-93
2021/03/28 05:38:12;;;;;;;34.28;7.43;;;;;;;;;;5200418;27;20014;-93
2021/03/28 05:40:41;;;;;;;31.37;6.32;;;;;;;;;;5200041;27;20029;-93
2021/03/28 05:43:41;;;;;;;39.92;7.62;;;;;;;;;;5198478;27;20069;-95
2021/03/28 05:46:23;;;;;;;35.30;7.68;;;;;;;;;;5150763;27;20052;-93
2021/03/28 05:48:58;;;;;;;40.70;9.35;;;;;;;;;;5195367;27;20025;-92
2021/03/28 05:51:48;;;;;;;34.35;9.35;;;;;;;;;;5216764;27;20038;-93
2021/03/28 05:54:48;;;;;;;41.50;9.63;;;;;;;;;;5197234;27;20066;-92
2021/03/28 05:57:36;;;;;;;39.97;10.30;;;;;;;;;;5197828;27;20029;-94
2021/03/28 06:00:07;;;;;;;49.00;10.25;;;;;;;;;;5198070;27;20418;-93
2021/03/28 06:02:40;;;;;;;40.42;8.90;;;;;;;;;;5199399;27;20060;-93
2021/03/28 06:05:24;;;;;;;42.72;9.38;;;;;;;;;;5196302;27;20720;-92
2021/03/28 06:07:52;;;;;;;47.38;9.70;;;;;;;;;;5214723;27;20060;-93
2021/03/28 06:10:53;;;;;;;54.92;10.25;;;;;;;;;;5199757;27;20038;-93
2021/03/28 06:13:43;;;;;;;49.67;10.35;;;;;;;;;;5179103;27;20192;-92
2021/03/28 06:16:20;;;;;;;43.05;9.57;;;;;;;;;;5213222;27;20044;-92
2021/03/28 06:19:03;;;;;;;45.28;8.77;;;;;;;;;;5214513;27;20341;-93
2021/03/28 06:21:42;;;;;;;46.30;9.85;;;;;;;;;;5189632;27;20064;-95
2021/03/28 06:24:29;;;;;;;43.97;10.07;;;;;;;;;;5198780;27;20048;-92
2021/03/28 06:27:08;;;;;;;38.58;8.85;;;;;;;;;;5214811;27;20041;-94
2021/03/28 06:29:55;;;;;;;49.95;10.13;;;;;;;;;;5197841;27;20026;-94
2021/03/28 06:32:52;;;;;;;57.15;11.18;;;;;;;;;;5198960;27;20050;-95
2021/03/28 06:35:25;;;;;;;;;;;;;;;;;;5197469;27;20030;-94
2021/03/28 06:37:54;;;;;;;42.97;10.57;;;;;;;;;;5215161;27;19941;-95
2021/03/28 06:40:46;;;;;;;54.40;12.27;;;;;;;;;;5196551;27;20038;-94
2021/03/28 06:43:44;;;;;;;51.33;12.02;;;;;;;;;;5193487;27;20138;-96
2021/03/28 06:46:32;;;;;;;48.72;13.85;;;;;;;;;;5160363;27;20026;-94
2021/03/28 06:49:26;;;;;;;44.75;13.10;;;;;;;;;;5175657;27;20019;-94
2021/03/28 06:51:54;;;;;;;53.80;14.15;;;;;;;;;;5163312;27;20041;-95
2021/03/28 06:54:49;;;;;;;39.13;13.23;;;;;;;;;;5194121;27;20030;-93
2021/03/28 06:57:41;;;;;;;44.42;13.18;;;;;;;;;;5176211;27;20026;-94
2021/03/28 07:00:23;;;;;;;60.08;15.52;;;;;;;;;;5176714;27;20039;-95
2021/03/28 07:03:10;;;;;;;59.80;15.55;;;;;;;;;;5178020;27;20041;-92
2021/03/28 07:05:45;;;;;;;42.22;14.43;;;;;;;;;;5175098;27;20030;-92
2021/03/28 07:08:45;;;;;;;45.38;12.93;;;;;;;;;;5181509;27;20015;-94
2021/03/28 07:11:30;;;;;;;50.80;11.98;;;;;;;;;;5179946;27;20027;-94
2021/03/28 07:14:26;;;;;;;58.63;14.20;;;;;;;;;;5178438;27;20035;-93
2021/03/28 07:17:24;;;;;;;45.90;13.15;;;;;;;;;;5178900;27;20030;-93
2021/03/28 07:20:11;;;;;;;50.10;14.57;;;;;;;;;;5178965;27;20423;-93
2021/03/28 07:22:53;;;;;;;45.83;16.80;;;;;;;;;;5186492;27;20030;-95
2021/03/28 07:25:26;;;;;;;29.33;13.15;;;;;;;;;;5193684;27;20057;-95
2021/03/28 07:28:05;;;;;;;39.80;18.15;;;;;;;;;;5179019;27;20040;-94
2021/03/28 07:31:02;;;;;;;44.63;25.98;;;;;;;;;;5178748;27;20034;-95
2021/03/28 07:33:52;;;;;;;31.48;10.98;;;;;;;;;;5178270;27;20069;-94
2021/03/28 07:36:33;;;;;;;39.85;11.73;;;;;;;;;;5195551;27;20034;-94
2021/03/28 07:39:17;;;;;;;60.78;33.30;;;;;;;;;;5180559;27;20027;-95
2021/03/28 07:42:03;;;;;;;19.55;6.57;;;;;;;;;;5179142;27;20033;-94
2021/03/28 07:44:55;;;;;;;23.92;9.20;;;;;;;;;;5179439;27;20602;-95
2021/03/28 07:47:44;;;;;;;26.37;10.05;;;;;;;;;;5178171;27;20065;-93
2021/03/28 07:50:31;;;;;;;31.55;16.30;;;;;;;;;;5179359;27;20058;-94
2021/03/28 07:53:41;;;;;;;32.60;11.82;;;;;;;;;;5177220;27;20026;-96
2021/03/28 07:56:19;;;;;;;21.55;5.90;;;;;;;;;;5197056;27;20400;-96
2021/03/28 07:58:59;;;;;;;29.10;6.05;;;;;;;;;;5182431;27;20031;-94
2021/03/28 08:01:54;;;;;;;26.23;6.57;;;;;;;;;;5180380;27;20394;-96
2021/03/28 08:04:47;;;;;;;41.28;7.97;;;;;;;;;;5176885;27;20404;-95
2021/03/28 08:07:31;;;;;;;29.27;6.85;;;;;;;;;;5178396;27;20035;-95
2021/03/28 08:10:22;;;;;;;25.52;6.30;;;;;;;;;;5195547;27;20041;-95
2021/03/28 08:13:01;;;;;;;26.20;6.03;;;;;;;;;;5180478;27;20053;-95
2021/03/28 08:15:49;;;;;;;36.60;7.62;;;;;;;;;;5194924;27;20038;-94
2021/03/28 08:18:19;;;;;;;30.52;7.00;;;;;;;;;;5176582;27;20026;-93
2021/03/28 08:21:05;;;;;;;30.25;7.50;;;;;;;;;;5174691;27;20046;-93
2021/03/28 08:23:36;;;;;;;27.17;6.47;;;;;;;;;;5192028;27;20025;-92
2021/03/28 08:26:14;;;;;;;35.50;6.82;;;;;;;;;;5175226;27;20042;-93
2021/03/28 08:29:05;;;;;;;17.73;4.80;;;;;;;;;;5166627;27;20034;-94
2021/03/28 08:31:56;;;;;;;25.27;6.05;;;;;;;;;;5211231;27;20042;-94
2021/03/28 08:34:36;;;;;;;28.87;6.32;;;;;;;;;;5175627;27;20031;-93
2021/03/28 08:37:23;;;;;;;27.77;5.78;;;;;;;;;;5174548;27;20474;-93
2021/03/28 08:40:01;;;;;;;35.42;7.20;;;;;;;;;;5172594;27;20054;-93
2021/03/28 08:42:50;;;;;;;28.05;6.93;;;;;;;;;;5173385;27;20133;-93
2021/03/28 08:45:40;;;;;;;29.42;6.43;;;;;;;;;;5192944;27;20027;-94
2021/03/28 08:48:30;;;;;;;21.90;6.40;;;;;;;;;;5175278;27;20019;-94
2021/03/28 08:51:17;;;;;;;25.00;6.00;;;;;;;;;;5189940;27;20042;-94
2021/03/28 08:54:03;;;;;;;25.62;6.47;;;;;;;;;;5175772;27;20065;-93
2021/03/28 08:56:49;;;;;;;18.30;5.35;;;;;;;;;;5194547;27;20021;-95
2021/03/28 08:59:38;;;;;;;23.60;5.40;;;;;;;;;;5175596;27;20061;-93
2021/03/28 09:02:06;;;;;;;21.08;5.95;;;;;;;;;;5192227;27;20037;-95
2021/03/28 09:04:38;;;;;;;26.50;5.97;;;;;;;;;;5175443;27;20034;-95
2021/03/28 09:07:12;;;;;;;26.83;6.00;;;;;;;;;;5174539;27;20026;-95
2021/03/28 09:09:49;;;;;;;23.17;5.65;;;;;;;;;;5175935;27;20467;-95
2021/03/28 09:12:38;;;;;;;15.73;4.75;;;;;;;;;;5173912;27;20034;-96
2021/03/28 09:15:08;;;;;;;28.60;6.55;;;;;;;;;;5173587;27;20056;-95
2021/03/28 09:17:36;;;;;;;13.82;4.05;;;;;;;;;;5174114;27;20026;-94
2021/03/28 09:20:07;;;;;;;20.35;4.80;;;;;;;;;;5190382;27;20332;-95
2021/03/28 09:22:52;;;;;;;18.83;4.40;;;;;;;;;;5191915;27;20033;-96
2021/03/28 09:25:41;;;;;;;14.30;3.95;;;;;;;;;;5174154;27;20053;-95
2021/03/28 09:28:35;;;;;;;19.52;4.85;;;;;;;;;;5174877;27;20023;-96
2021/03/28 09:31:12;;;;;;;19.08;5.32;;;;;;;;;;5192094;27;20495;-95
2021/03/28 09:33:53;;;;;;;22.00;5.10;;;;;;;;;;5168174;27;20146;-95
2021/03/28 09:36:38;;;;;;;20.30;5.53;;;;;;;;;;5173713;27;20047;-95
2021/03/28 09:39:17;;;;;;;24.77;5.37;;;;;;;;;;5192040;27;20526;-96
2021/03/28 09:42:04;;;;;;;22.20;5.97;;;;;;;;;;5174101;27;20026;-95
2021/03/28 09:45:02;;;;;;;26.52;5.90;;;;;;;;;;5210851;27;20034;-96
2021/03/28 09:47:34;;;;;;;24.65;7.12;;;;;;;;;;5136638;27;20035;-96
2021/03/28 09:50:12;;;;;;;30.00;6.07;;;;;;;;;;5190269;27;20449;-96
2021/03/28 09:53:20;;;;;;;25.83;6.80;;;;;;;;;;5180717;27;20038;-96
2021/03/28 09:55:55;;;;;;;24.55;7.03;;;;;;;;;;5175500;27;20037;-95
2021/03/28 09:58:42;;;;;;;21.42;6.22;;;;;;;;;;5174845;27;20038;-95
2021/03/28 10:01:30;;;;;;;37.30;7.12;;;;;;;;;;5209941;27;20056;-96
2021/03/28 10:04:02;;;;;;;16.87;4.78;;;;;;;;;;5191093;27;20433;-96
2021/03/28 10:06:31;;;;;;;24.50;5.62;;;;;;;;;;5194345;27;20478;-95
2021/03/28 10:09:21;;;;;;;14.60;4.60;;;;;;;;;;5174900;27;20026;-94
2021/03/28 10:11:52;;;;;;;19.50;5.18;;;;;;;;;;5172454;27;20067;-96
2021/03/28 10:14:33;;;;;;;19.75;5.72;;;;;;;;;;5192332;27;20703;-96
2021/03/28 10:17:20;;;;;;;19.58;5.30;;;;;;;;;;5196138;27;20031;-94
2021/03/28 10:19:50;;;;;;;19.08;5.12;;;;;;;;;;5176394;27;20015;-96
2021/03/28 10:22:33;;;;;;;14.50;4.50;;;;;;;;;;5197369;27;20027;-96
2021/03/28 10:25:21;;;;;;;20.15;5.60;;;;;;;;;;5182367;27;20072;-96
2021/03/28 10:28:09;;;;;;;18.85;5.43;;;;;;;;;;5189826;27;20028;-96
2021/03/28 10:31:01;;;;;;;20.27;5.28;;;;;;;;;;5182977;27;20096;-95
2021/03/28 10:33:52;;;;;;;24.23;6.20;;;;;;;;;;5216635;27;20010;-94
2021/03/28 10:36:24;;;;;;;20.77;5.32;;;;;;;;;;5177761;27;20030;-96
2021/03/28 10:39:11;;;;;;;17.65;5.65;;;;;;;;;;5173627;27;20063;-96
2021/03/28 10:41:49;;;;;;;21.15;5.45;;;;;;;;;;5193039;27;20027;-95
2021/03/28 10:44:27;;;;;;;17.42;5.40;;;;;;;;;;5176009;27;20062;-96
2021/03/28 10:50:26;;;;;;;19.37;5.68;;;;;;;;;;5214907;27;20046;-95
2021/03/28 10:53:20;;;;;;;22.20;6.10;;;;;;;;;;5200005;27;20439;-94
2021/03/28 10:56:03;;;;;;;16.50;5.35;;;;;;;;;;5198738;27;20069;-95
2021/03/28 10:58:55;;;;;;;19.87;5.50;;;;;;;;;;5196856;27;20082;-96
2021/03/28 11:01:45;;;;;;;19.27;6.25;;;;;;;;;;5197051;27;20018;-96
2021/03/28 11:04:37;;;;;;;18.90;5.05;;;;;;;;;;5187437;27;20031;-95
2021/03/28 11:07:24;;;;;;;20.95;5.22;;;;;;;;;;5171763;27;20042;-96
2021/03/28 11:10:14;;;;;;;14.82;5.05;;;;;;;;;;5172999;27;20030;-96
2021/03/28 11:13:05;;;;;;;15.15;4.93;;;;;;;;;;5175392;27;20425;-96
2021/03/28 11:15:41;;;;;;;20.35;6.03;;;;;;;;;;5193275;27;20062;-94
2021/03/28 11:18:25;;;;;;;17.58;5.05;;;;;;;;;;5189996;27;20019;-95
2021/03/28 11:20:56;;;;;;;21.62;5.28;;;;;;;;;;5175923;27;20091;-94
2021/03/28 11:23:43;;;;;;;19.80;5.72;;;;;;;;;;5196882;27;20022;-96
2021/03/28 11:26:48;;;;;;;18.70;5.10;;;;;;;;;;5178163;27;20759;-95
2021/03/28 11:29:29;;;;;;;20.45;5.47;;;;;;;;;;5181717;27;20031;-95
2021/03/28 11:32:08;;;;;;;19.73;4.97;;;;;;;;;;5189651;27;20023;-96
2021/03/28 11:37:46;;;;;;;19.30;5.07;;;;;;;;;;5215449;27;20030;-96
2021/03/28 11:40:19;;;;;;;16.17;4.87;;;;;;;;;;5196873;27;20054;-96
2021/03/28 11:42:52;;;;;;;18.62;4.95;;;;;;;;;;5194663;27;20031;-95
2021/03/28 11:45:27;;;;;;;21.67;5.45;;;;;;;;;;5179319;27;20034;-96
2021/03/28 11:48:27;;;;;;;19.67;6.40;;;;;;;;;;5180328;27;20053;-96
2021/03/28 11:50:59;;;;;;;19.15;5.15;;;;;;;;;;5175653;27;20033;-94
2021/03/28 11:53:39;;;;;;;18.48;5.43;;;;;;;;;;5178517;27;20031;-96
2021/03/28 11:56:26;;;;;;;16.87;4.68;;;;;;;;;;5183931;27;20035;-96
2021/03/28 11:58:58;;;;;;;16.52;5.60;;;;;;;;;;5221199;27;20446;-94
2021/03/28 12:01:48;;;;;;;23.38;5.37;;;;;;;;;;5199655;27;20015;-96
2021/03/28 12:04:37;;;;;;;20.85;5.78;;;;;;;;;;5218579;27;20035;-96
2021/03/28 12:07:12;;;;;;;;;;;;;;;;;;5195567;27;20060;-95
2021/03/28 12:09:41;;;;;;;20.85;6.00;;;;;;;;;;5176468;27;19952;-96
2021/03/28 12:12:21;;;;;;;21.40;5.50;;;;;;;;;;5180034;27;20034;-96
2021/03/28 12:14:50;;;;;;;20.77;6.00;;;;;;;;;;5177676;27;20033;-95
2021/03/28 12:17:21;;;;;;;26.10;6.35;;;;;;;;;;5192635;27;20359;-94
2021/03/28 12:19:51;;;;;;;;;;;;;;;;;;5176132;27;20029;-96
2021/03/28 12:22:33;;;;;;;27.73;6.82;;;;;;;;;;5194121;27;19942;-95
2021/03/28 12:25:15;;;;;;;25.85;6.45;;;;;;;;;;5175823;27;20030;-96
2021/03/28 12:28:00;;;;;;;27.33;6.53;;;;;;;;;;5176737;27;20035;-94
2021/03/28 12:30:31;;;;;;;30.40;6.50;;;;;;;;;;5174601;27;20038;-93
2021/03/28 12:33:10;;;;;;;25.62;6.15;;;;;;;;;;5172588;27;20030;-95
2021/03/28 12:35:47;;;;;;;28.90;6.82;;;;;;;;;;5174025;27;20043;-93
2021/03/28 12:38:23;;;;;;;32.90;7.37;;;;;;;;;;5172670;27;20336;-96
2021/03/28 12:41:11;;;;;;;28.27;6.57;;;;;;;;;;5191470;27;20043;-94
2021/03/28 12:43:48;;;;;;;30.77;6.78;;;;;;;;;;5175408;27;20780;-93
2021/03/28 12:46:36;;;;;;;49.92;8.07;;;;;;;;;;5175059;27;20038;-94
2021/03/28 12:49:10;;;;;;;30.37;6.28;;;;;;;;;;5177240;27;20353;-93
2021/03/28 12:51:40;;;;;;;25.05;6.05;;;;;;;;;;5180063;27;20053;-93
2021/03/28 12:54:28;;;;;;;26.62;5.97;;;;;;;;;;5182532;27;20105;-94
2021/03/28 12:57:01;;;;;;;24.87;6.20;;;;;;;;;;5203259;27;20033;-94
2021/03/28 12:59:37;;;;;;;31.30;6.15;;;;;;;;;;5179232;27;20054;-93
2021/03/28 13:02:30;;;;;;;31.27;6.30;;;;;;;;;;5176581;27;20061;-93
2021/03/28 13:05:19;;;;;;;21.40;5.40;;;;;;;;;;5175074;27;20385;-93
2021/03/28 13:07:53;;;;;;;34.95;6.50;;;;;;;;;;5175517;27;20034;-92
2021/03/28 13:10:42;;;;;;;28.00;6.43;;;;;;;;;;5175453;27;20100;-95
2021/03/28 13:13:16;;;;;;;32.25;5.90;;;;;;;;;;5176663;27;20035;-93
2021/03/28 13:15:47;;;;;;;24.87;5.45;;;;;;;;;;5173145;27;20026;-94
2021/03/28 13:18:15;;;;;;;35.08;6.37;;;;;;;;;;5174480;27;20022;-93
2021/03/28 13:20:53;;;;;;;35.25;6.45;;;;;;;;;;5175000;27;20038;-95
2021/03/28 13:23:26;;;;;;;37.85;6.78;;;;;;;;;;5176291;27;20049;-93
2021/03/28 13:26:13;;;;;;;37.15;6.22;;;;;;;;;;5175724;27;20026;-93
2021/03/28 13:28:44;;;;;;;22.90;5.82;;;;;;;;;;5176093;27;20030;-94
2021/03/28 13:31:14;;;;;;;25.65;5.97;;;;;;;;;;5193612;27;20049;-94
2021/03/28 13:33:47;;;;;;;26.98;6.25;;;;;;;;;;5176733;27;20101;-95
2021/03/28 13:36:36;;;;;;;34.95;6.00;;;;;;;;;;5175350;27;20041;-96
2021/03/28 13:39:08;;;;;;;25.05;5.65;;;;;;;;;;5175674;27;20035;-93
2021/03/28 13:41:43;;;;;;;26.42;5.53;;;;;;;;;;5176569;27;20031;-92
2021/03/28 13:44:18;;;;;;;39.55;7.15;;;;;;;;;;5173873;27;20377;-95
2021/03/28 13:47:06;;;;;;;24.12;5.35;;;;;;;;;;5174938;27;20031;-93
2021/03/28 13:49:40;;;;;;;27.27;5.85;;;;;;;;;;5192768;27;20053;-94
2021/03/28 13:52:15;;;;;;;29.23;6.45;;;;;;;;;;5177031;27;20081;-93
2021/03/28 13:55:01;;;;;;;23.40;5.82;;;;;;;;;;5175965;27;20329;-92
2021/03/28 13:57:31;;;;;;;23.85;5.35;;;;;;;;;;5166837;27;20038;-94
2021/03/28 14:00:01;;;;;;;24.37;6.03;;;;;;;;;;5176132;27;20432;-92
2021/03/28 14:02:37;;;;;;;25.62;5.47;;;;;;;;;;5176633;27;20026;-94
2021/03/28 14:05:09;;;;;;;27.85;5.95;;;;;;;;;;5173907;27;20026;-95
2021/03/28 14:07:44;;;;;;;28.25;5.60;;;;;;;;;;5193765;27;20037;-93
2021/03/28 14:10:15;;;;;;;26.58;5.47;;;;;;;;;;5176313;27;20053;-94
2021/03/28 14:12:51;;;;;;;23.52;5.30;;;;;;;;;;5173575;27;20038;-95
2021/03/28 14:15:23;;;;;;;29.12;5.90;;;;;;;;;;5173635;27;20058;-93
2021/03/28 14:18:02;;;;;;;24.60;5.62;;;;;;;;;;5176773;27;20392;-93
2021/03/28 14:20:37;;;;;;;25.88;5.10;;;;;;;;;;5176226;27;20045;-94
2021/03/28 14:23:05;;;;;;;;;;;;;;;;;;5192640;27;20438;-94
2021/03/28 14:25:39;;;;;;;28.67;6.20;;;;;;;;;;5192047;27;19985;-95
2021/03/28 14:28:20;;;;;;;26.85;5.78;;;;;;;;;;5177147;27;20033;-94
2021/03/28 14:30:58;;;;;;;23.00;5.45;;;;;;;;;;5176523;27;20026;-95
2021/03/28 14:33:30;;;;;;;24.95;5.78;;;;;;;;;;5175922;27;20027;-94
2021/03/28 14:36:07;;;;;;;19.73;4.93;;;;;;;;;;5177026;27;20023;-94
2021/03/28 14:38:40;;;;;;;24.35;5.47;;;;;;;;;;5193737;27;20022;-95
2021/03/28 14:41:31;;;;;;;24.60;5.93;;;;;;;;;;5176261;27;20034;-95
2021/03/28 14:44:14;;;;;;;30.88;6.62;;;;;;;;;;5166973;27;20030;-94
2021/03/28 14:46:46;;;;;;;26.27;6.10;;;;;;;;;;5190096;27;20050;-94
2021/03/28 14:49:26;;;;;;;23.98;5.75;;;;;;;;;;5176319;27;20069;-94
2021/03/28 14:52:06;;;;;;;29.23;6.50;;;;;;;;;;5174269;27;20034;-93
2021/03/28 14:54:37;;;;;;;28.30;5.45;;;;;;;;;;5174256;27;20065;-93
2021/03/28 14:57:19;;;;;;;25.52;5.80;;;;;;;;;;5175124;27;20034;-96
2021/03/28 15:00:11;;;;;;;30.00;5.70;;;;;;;;;;5175504;27;20061;-93
2021/03/28 15:03:02;;;;;;;30.08;6.15;;;;;;;;;;5175002;27;20022;-94
2021/03/28 15:05:30;;;;;;;23.77;5.62;;;;;;;;;;5175327;27;20023;-95
2021/03/28 15:07:59;;;;;;;25.80;5.53;;;;;;;;;;5177137;27;20041;-94
2021/03/28 15:10:46;;;;;;;21.85;5.18;;;;;;;;;;5176839;27;20030;-95
2021/03/28 15:13:35;;;;;;;24.33;5.62;;;;;;;;;;5176080;27;20030;-94
2021/03/28 15:16:22;;;;;;;26.20;5.70;;;;;;;;;;5175194;27;20102;-95
2021/03/28 15:18:59;;;;;;;26.85;6.12;;;;;;;;;;5173491;27;20442;-95
2021/03/28 15:21:27;;;;;;;;;;;;;;;;;;5193265;27;20031;-94
2021/03/28 15:24:11;;;;;;;23.85;5.95;;;;;;;;;;5175693;27;19941;-94
2021/03/28 15:26:53;;;;;;;25.30;5.70;;;;;;;;;;5174847;27;20066;-94
2021/03/28 15:29:27;;;;;;;39.90;5.82;;;;;;;;;;5173469;27;20132;-94
2021/03/28 15:32:21;;;;;;;30.23;6.30;;;;;;;;;;5176195;27;20030;-95
2021/03/28 15:35:08;;;;;;;29.83;5.93;;;;;;;;;;5138182;27;20853;-94
2021/03/28 15:37:54;;;;;;;26.58;6.00;;;;;;;;;;5176820;27;20066;-95
2021/03/28 15:40:26;;;;;;;30.17;6.68;;;;;;;;;;5174915;27;20026;-95
2021/03/28 15:42:58;;;;;;;26.15;5.68;;;;;;;;;;5174088;27;20027;-93
2021/03/28 15:45:45;;;;;;;29.52;6.15;;;;;;;;;;5174001;27;20031;-94
2021/03/28 15:48:33;;;;;;;26.55;5.82;;;;;;;;;;5172711;27;20033;-95
2021/03/28 15:51:04;;;;;;;22.25;5.50;;;;;;;;;;5175276;27;20045;-95
2021/03/28 15:53:35;;;;;;;26.52;5.78;;;;;;;;;;5175981;27;20025;-95
2021/03/28 15:56:09;;;;;;;35.88;6.07;;;;;;;;;;5197650;27;20439;-94
2021/03/28 15:58:42;;;;;;;21.77;5.25;;;;;;;;;;5183503;27;20014;-94
2021/03/28 16:02:03;;;;;;;45.05;7.22;;;;;;;;;;5194446;27;20336;-94